Time;durP1;ratioP1;P1;durP2;ratioP2;P2;SDS_P1;SDS_P2;PMS_P1;PMS_P2;Temp;Humidity;BMP_temperature;BMP_pressure;BME280_temperature;BME280_humidity;BME280_pressure;Samples;Min_cycle;Max_cycle;Signal;HPM_P1;HPM_P2
2021/12/19 00:01:08;;;;;;;4.70;3.47;;;11.40;73.30;;;14.37;55.28;103170.91;4861284;29;20201;-61
2021/12/19 00:08:52;;;;;;;6.30;3.73;;;11.40;73.70;;;14.40;55.64;103160.03;4860692;29;20212;-61
2021/12/19 00:11:23;;;;;;;8.07;3.53;;;11.40;73.80;;;14.41;55.48;103153.72;4861195;29;20507;-61
2021/12/19 00:13:52;;;;;;;5.27;3.13;;;11.30;73.90;;;14.45;55.50;103152.50;4860225;29;20255;-62
2021/12/19 00:16:20;;;;;;;5.60;3.23;;;11.40;74.00;;;14.47;55.56;103158.50;4860574;29;20197;-61
2021/12/19 00:18:50;;;;;;;4.60;3.17;;;11.40;73.90;;;14.46;55.38;103151.50;4860481;29;20207;-60
2021/12/19 00:21:19;;;;;;;8.13;4.70;;;11.40;74.00;;;14.45;55.62;103152.50;4860878;29;20200;-60
2021/12/19 00:23:50;;;;;;;8.57;3.50;;;11.40;73.80;;;14.46;55.50;103143.56;4860487;29;20217;-62
2021/12/19 00:26:18;;;;;;;7.43;3.90;;;11.40;73.80;;;14.48;55.32;103141.59;4860959;29;20235;-60
2021/12/19 00:28:48;;;;;;;9.50;4.13;;;11.40;73.60;;;14.46;55.42;103142.72;4860781;29;20196;-62
2021/12/19 00:31:17;;;;;;;7.33;4.20;;;11.40;73.40;;;14.44;55.55;103134.91;4842343;29;20603;-61
2021/12/19 00:33:45;;;;;;;7.27;4.07;;;11.40;73.50;;;14.44;55.52;103134.06;4841563;29;20213;-61
2021/12/19 00:36:14;;;;;;;9.03;3.87;;;11.40;73.50;;;14.42;55.52;103131.56;4842220;29;20276;-61
2021/12/19 00:38:41;;;;;;;8.97;4.30;;;11.50;73.60;;;14.43;55.71;103124.47;4859639;29;20203;-61
2021/12/19 00:41:09;;;;;;;6.47;3.47;;;11.50;73.30;;;14.43;55.47;103114.69;4861011;29;20283;-61
2021/12/19 00:43:46;;;;;;;9.13;3.63;;;11.50;73.40;;;14.45;55.48;103119.84;4860379;29;20702;-62
2021/12/19 00:46:16;;;;;;;8.37;3.63;;;11.50;73.30;;;14.44;55.37;103107.56;4860956;29;20584;-63
2021/12/19 00:48:46;;;;;;;7.03;3.90;;;11.50;73.20;;;14.44;55.32;103100.47;4860361;29;20196;-60
2021/12/19 00:51:16;;;;;;;7.67;3.40;;;11.50;72.80;;;14.44;55.12;103103.13;4859625;29;20558;-62
2021/12/19 00:53:46;;;;;;;8.50;4.20;;;11.50;72.80;;;14.44;54.96;103103.13;4860266;29;20649;-63
2021/12/19 00:56:14;;;;;;;8.80;4.30;;;11.50;72.30;;;14.43;55.09;103098.78;4860989;29;20223;-63
2021/12/19 00:58:42;;;;;;;11.97;4.17;;;11.50;72.20;;;14.42;54.60;103091.81;4860140;29;20248;-62
2021/12/19 01:01:12;;;;;;;9.80;4.40;;;11.40;72.10;;;14.40;54.75;103096.44;4860350;29;20297;-61
2021/12/19 01:03:44;;;;;;;10.53;3.63;;;11.40;72.10;;;14.40;54.56;103083.19;4859952;29;20220;-62
2021/12/19 01:06:11;;;;;;;9.60;3.90;;;11.40;71.90;;;14.41;54.38;103079.53;4860721;29;20678;-61
2021/12/19 01:08:39;;;;;;;8.80;3.50;;;11.40;71.80;;;14.40;54.44;103077.88;4860510;29;20212;-62
2021/12/19 01:11:06;;;;;;;10.63;3.80;;;11.40;71.70;;;14.41;54.61;103086.66;4859658;29;20197;-60
2021/12/19 01:13:34;;;;;;;6.93;3.17;;;11.40;71.90;;;14.40;54.58;103085.84;4859986;29;20683;-63
2021/12/19 01:16:02;;;;;;;7.03;2.47;;;11.40;71.90;;;14.40;54.16;103077.88;4860701;29;20647;-63
2021/12/19 01:18:29;;;;;;;6.37;2.40;;;11.40;71.80;;;14.39;54.12;103073.56;4859668;29;20211;-61
2021/12/19 01:20:58;;;;;;;6.50;2.87;;;11.40;72.10;;;14.39;54.63;103070.91;4860164;29;20188;-62
2021/12/19 01:23:26;;;;;;;6.47;2.50;;;11.40;72.20;;;14.37;54.70;103070.22;4860035;29;20742;-61
2021/12/19 01:25:53;;;;;;;5.50;2.97;;;11.30;72.30;;;14.36;54.78;103063.22;4858483;29;20204;-63
2021/12/19 01:28:21;;;;;;;4.87;2.50;;;11.40;72.30;;;14.34;54.83;103057.25;4862602;29;20226;-62
2021/12/19 01:30:48;;;;;;;4.87;2.40;;;11.40;72.40;;;14.34;54.72;103049.28;4862578;29;20597;-63
2021/12/19 01:33:16;;;;;;;5.53;2.77;;;11.40;72.40;;;14.36;54.88;103051.81;4863133;29;20242;-63
2021/12/19 01:35:44;;;;;;;5.20;2.30;;;11.40;72.50;;;14.37;54.91;103054.31;4863896;29;20284;-63
2021/12/19 01:38:13;;;;;;;6.53;2.90;;;11.40;72.40;;;14.39;54.83;103055.00;4864059;29;20203;-60
2021/12/19 01:40:41;;;;;;;5.50;2.73;;;11.40;72.40;;;14.39;54.79;103055.00;4863968;29;20676;-63
2021/12/19 01:43:08;;;;;;;11.33;3.67;;;11.40;72.30;;;14.39;54.62;103055.00;4863311;29;20290;-61
2021/12/19 01:45:39;;;;;;;9.47;3.47;;;11.40;72.00;;;14.38;54.58;103061.25;4863653;29;20203;-62
2021/12/19 01:48:11;;;;;;;9.00;3.93;;;11.40;71.90;;;14.37;54.28;103059.63;4863555;29;20250;-61
2021/12/19 01:50:41;;;;;;;9.00;4.03;;;11.30;71.90;;;14.38;54.51;103060.47;4863900;29;20699;-63
2021/12/19 01:53:12;;;;;;;7.57;3.87;;;11.30;71.90;;;14.39;54.00;103054.16;4863222;29;20220;-62
2021/12/19 01:55:42;;;;;;;6.60;3.10;;;11.40;71.80;;;14.39;54.69;103060.31;4863678;29;20201;-63
2021/12/19 01:58:11;;;;;;;6.47;3.13;;;11.40;72.00;;;14.40;54.40;103064.63;4862878;29;20280;-62
2021/12/19 02:00:43;;;;;;;5.77;3.00;;;11.40;71.90;;;14.40;54.42;103053.19;4863806;29;20205;-63
2021/12/19 02:03:12;;;;;;;5.50;2.70;;;11.40;72.00;;;14.40;54.50;103047.91;4862956;29;20657;-63
2021/12/19 02:05:40;;;;;;;7.70;3.47;;;11.40;72.00;;;14.38;54.30;103045.38;4863254;29;20506;-63
2021/12/19 02:08:09;;;;;;;6.10;3.13;;;11.40;72.00;;;14.38;54.42;103042.72;4862774;29;20224;-63
2021/12/19 02:10:40;;;;;;;7.00;3.10;;;11.40;72.00;;;14.38;54.67;103049.84;4862137;29;20207;-62
2021/12/19 02:13:10;;;;;;;4.40;2.47;;;11.40;72.10;;;14.39;54.50;103047.06;4862892;29;20247;-63
2021/12/19 02:15:40;;;;;;;5.33;2.40;;;11.40;72.20;;;14.38;54.63;103040.06;4863537;29;20336;-63
2021/12/19 02:18:14;;;;;;;7.07;2.50;;;11.40;72.20;;;14.37;54.51;103033.13;4863052;29;20205;-63
2021/12/19 02:20:47;;;;;;;8.17;3.17;;;11.40;72.10;;;14.38;54.49;103037.41;4862040;29;20204;-61
2021/12/19 02:23:15;;;;;;;8.77;3.77;;;11.40;72.00;;;14.38;54.36;103033.97;4862482;29;20238;-61
2021/12/19 02:25:42;;;;;;;4.23;2.93;;;11.40;72.00;;;14.38;54.17;103029.47;4862923;29;20204;-61
2021/12/19 02:28:10;;;;;;;8.67;3.17;;;11.30;72.00;;;14.37;54.54;103038.41;4863013;29;20700;-62
2021/12/19 02:30:38;;;;;;;6.87;3.50;;;11.30;71.80;;;14.36;54.55;103038.56;4862975;29;20586;-61
2021/12/19 02:33:10;;;;;;;9.87;3.30;;;11.30;71.70;;;14.35;54.40;103027.13;4862514;29;20223;-63
2021/12/19 02:35:39;;;;;;;9.47;4.13;;;11.30;71.80;;;14.33;54.36;103021.16;4863138;29;20205;-62
2021/12/19 02:49:25;;;;;;;7.27;3.40;;;11.30;72.10;;;14.20;55.00;103016.09;4849316;29;20200;-61
2021/12/19 02:51:54;;;;;;;8.00;3.57;;;11.30;72.30;;;14.24;54.95;103021.94;4862913;29;20192;-62
2021/12/19 02:54:26;;;;;;;9.03;4.43;;;11.30;72.30;;;14.25;54.93;103007.72;4862621;29;20654;-62
2021/12/19 02:56:53;;;;;;;8.30;4.20;;;11.30;72.40;;;14.27;54.83;103003.13;4862493;29;20209;-62
2021/12/19 02:59:20;;;;;;;12.80;4.63;;;11.30;72.50;;;14.29;54.92;102995.06;4844507;29;20201;-63
2021/12/19 03:01:49;;;;;;;10.13;3.97;;;11.30;72.40;;;14.29;55.02;102993.22;4844341;29;20201;-62
2021/12/19 03:04:17;;;;;;;7.00;3.83;;;11.30;72.60;;;14.30;55.08;102989.63;4842699;29;20229;-63
2021/12/19 03:06:46;;;;;;;10.40;4.57;;;11.30;72.60;;;14.32;54.89;102990.31;4844194;29;20305;-62
2021/12/19 03:09:26;;;;;;;9.93;3.90;;;11.30;72.60;;;14.31;55.05;102985.97;4861934;29;20625;-63
2021/12/19 03:12:20;;;;;;;7.07;3.17;;;11.30;72.60;;;14.31;55.13;102980.69;4862154;29;20196;-61
2021/12/19 03:17:58;;;;;;;8.00;3.70;;;11.30;72.60;;;14.36;54.75;102986.41;4869556;29;20205;-61
2021/12/19 03:20:26;;;;;;;11.03;4.27;;;11.40;72.60;;;14.37;54.88;102980.13;4860956;29;20653;-62
2021/12/19 03:22:54;;;;;;;9.83;3.90;;;11.40;72.50;;;14.40;54.66;102979.00;4861337;29;20244;-61
2021/12/19 03:25:21;;;;;;;10.80;5.00;;;11.40;72.40;;;14.41;54.51;102970.06;4861731;29;20665;-61
2021/12/19 03:27:51;;;;;;;8.60;4.57;;;11.40;72.20;;;14.40;54.54;102969.25;4862152;29;20224;-62
2021/12/19 03:30:19;;;;;;;9.67;4.47;;;11.30;72.20;;;14.41;54.79;102960.31;4861373;29;20291;-63
2021/12/19 03:32:46;;;;;;;11.17;4.43;;;11.40;72.50;;;14.44;54.71;102949.44;4861580;29;20217;-63
2021/12/19 03:35:15;;;;;;;13.00;5.20;;;11.40;72.40;;;14.47;54.68;102962.41;4861873;29;20722;-63
2021/12/19 03:37:43;;;;;;;9.70;4.70;;;11.30;72.50;;;14.45;54.57;102951.09;4861832;29;20595;-62
2021/12/19 03:40:14;;;;;;;11.60;4.50;;;11.30;72.70;;;14.43;54.68;102961.00;4861425;29;20303;-62
2021/12/19 03:42:45;;;;;;;11.53;5.40;;;11.30;72.70;;;14.43;54.45;102952.22;4861074;29;20243;-61
2021/12/19 03:45:18;;;;;;;11.93;5.53;;;11.40;72.80;;;14.44;54.68;102959.19;4861104;29;20685;-61
2021/12/19 03:47:47;;;;;;;16.63;5.50;;;11.40;72.80;;;14.44;54.62;102957.38;4861200;29;20333;-63
2021/12/19 03:50:21;;;;;;;10.87;6.07;;;11.40;72.20;;;14.43;54.43;102954.88;4861182;29;20622;-59
2021/12/19 03:52:50;;;;;;;7.90;5.17;;;11.30;72.20;;;14.39;54.59;102934.94;4861664;29;20697;-61
2021/12/19 03:55:18;;;;;;;12.90;5.87;;;11.30;72.70;;;14.39;54.71;102946.38;4862020;29;20275;-61
2021/12/19 03:57:45;;;;;;;11.37;6.07;;;11.30;72.50;;;14.38;54.79;102944.69;4861907;29;20201;-60
2021/12/19 04:00:24;;;;;;;13.07;6.93;;;11.30;72.50;;;14.37;54.97;102932.44;4860935;29;20642;-60
2021/12/19 04:02:55;;;;;;;10.93;6.00;;;11.30;72.60;;;14.37;54.91;102924.50;4860448;29;20352;-63
2021/12/19 04:05:23;;;;;;;18.10;7.13;;;11.30;72.70;;;14.38;54.87;102927.97;4861441;29;20592;-61
2021/12/19 04:07:51;;;;;;;10.17;6.43;;;11.30;72.80;;;14.38;54.98;102934.09;4861525;29;20708;-63
2021/12/19 04:10:21;;;;;;;13.70;6.13;;;11.40;72.80;;;14.39;54.85;102925.19;4861609;29;20714;-61
2021/12/19 04:12:49;;;;;;;11.67;7.03;;;11.40;72.70;;;14.40;54.79;102920.72;4860316;29;20228;-62
2021/12/19 04:15:18;;;;;;;13.83;6.80;;;11.30;72.60;;;14.38;54.80;102928.78;4861132;29;20539;-61
2021/12/19 04:17:45;;;;;;;16.20;5.87;;;11.30;72.40;;;14.37;54.61;102932.44;4860873;29;20249;-61
2021/12/19 04:20:15;;;;;;;12.87;5.90;;;11.30;72.50;;;14.35;54.99;102923.81;4860504;29;20197;-61
2021/12/19 04:22:42;;;;;;;14.40;6.63;;;11.30;72.60;;;14.34;54.82;102932.72;4860639;29;20227;-62
2021/12/19 04:25:11;;;;;;;9.53;5.07;;;11.30;72.70;;;14.33;54.83;102917.81;4860362;29;20192;-60
2021/12/19 04:27:39;;;;;;;12.67;5.73;;;11.30;72.80;;;14.34;54.88;102916.81;4859463;29;20258;-64
2021/12/19 04:30:11;;;;;;;10.30;5.43;;;11.30;72.80;;;14.37;54.99;102913.06;4861091;29;20192;-62
2021/12/19 04:32:44;;;;;;;14.37;4.80;;;11.30;72.70;;;14.36;54.98;102901.63;4859901;29;20299;-60
2021/12/19 04:35:13;;;;;;;13.30;5.10;;;11.30;72.80;;;14.38;54.91;102912.09;4860354;29;20564;-63
2021/12/19 04:56:29;;;;;;;7.30;3.50;;;11.30;72.20;;;14.31;54.67;102911.81;4860599;29;20662;-61
2021/12/19 05:15:51;;;;;;;8.27;3.27;;;11.30;72.30;;;14.25;54.90;102892.03;4860854;29;20216;-61
2021/12/19 05:18:23;;;;;;;8.37;3.53;;;11.30;72.10;;;14.26;55.03;102883.06;4860953;29;20220;-63
2021/12/19 05:20:56;;;;;;;10.10;3.43;;;11.30;72.40;;;14.27;55.13;102892.69;4860754;29;20193;-63
2021/12/19 05:24:02;;;;;;;9.53;3.60;;;11.30;72.50;;;14.30;54.85;102878.38;4859674;29;20217;-61
2021/12/19 05:26:12;;;;;;;9.10;3.87;;;11.30;72.60;;;14.34;54.88;102887.69;4854632;29;20292;-61
2021/12/19 05:28:39;;;;;;;10.47;3.97;;;11.30;72.60;;;14.34;54.77;102874.44;4860710;29;20224;-61
2021/12/19 05:31:08;;;;;;;5.83;3.20;;;11.30;72.60;;;14.36;55.10;102882.25;4862574;29;20203;-61
2021/12/19 05:33:35;;;;;;;11.80;5.00;;;11.30;72.80;;;14.35;55.20;102883.22;4863829;29;20765;-61
2021/12/19 05:46:42;;;;;;;12.57;5.03;;;11.40;73.50;;;14.35;55.56;102868.16;4860245;29;20204;-60
2021/12/19 05:49:10;;;;;;;9.80;4.20;;;11.30;73.50;;;14.35;55.62;102870.81;4859944;29;20280;-62
2021/12/19 05:51:39;;;;;;;10.10;4.97;;;11.40;73.70;;;14.36;55.57;102869.81;4860383;29;20200;-62
2021/12/19 05:54:09;;;;;;;10.00;4.30;;;11.30;73.80;;;14.37;55.60;102874.16;4859598;29;20213;-61
2021/12/19 05:56:41;;;;;;;9.97;3.90;;;11.30;73.80;;;14.34;55.51;102869.13;4859962;29;20570;-60
2021/12/19 05:59:09;;;;;;;7.53;3.67;;;11.30;73.70;;;14.31;55.49;102873.91;4859596;29;20207;-60
2021/12/19 06:01:43;;;;;;;7.40;2.50;;;11.30;73.40;;;14.27;55.12;102860.06;4860302;29;20353;-62
2021/12/19 06:04:10;;;;;;;4.83;2.50;;;11.20;72.60;;;14.22;55.27;102864.97;4859812;29;20239;-62
2021/12/19 06:06:39;;;;;;;5.13;2.00;;;11.20;72.50;;;14.22;54.86;102857.88;4860681;29;20288;-61
2021/12/19 06:09:06;;;;;;;2.63;2.03;;;11.20;72.30;;;14.23;54.89;102858.72;4859754;29;20220;-60
2021/12/19 06:11:34;;;;;;;5.20;2.20;;;11.20;72.20;;;14.24;54.75;102857.72;4860238;29;20207;-62
2021/12/19 06:14:01;;;;;;;6.63;1.90;;;11.20;72.40;;;14.25;55.06;102862.88;4860529;29;20307;-59
2021/12/19 06:16:29;;;;;;;5.60;2.03;;;11.20;72.80;;;14.24;54.69;102863.00;4863393;29;20296;-61
2021/12/19 06:18:57;;;;;;;3.93;2.17;;;11.20;73.10;;;14.24;55.17;102857.72;4863568;29;20665;-58
2021/12/19 06:21:24;;;;;;;5.40;2.13;;;11.20;74.00;;;14.20;55.42;102843.94;4863259;29;20223;-64
2021/12/19 06:23:53;;;;;;;6.13;2.50;;;11.10;74.20;;;14.19;55.50;102844.09;4862689;29;20227;-60
2021/12/19 06:26:21;;;;;;;3.53;1.90;;;11.20;73.70;;;14.18;55.70;102834.47;4863310;29;20530;-61
2021/12/19 06:28:48;;;;;;;3.67;2.00;;;11.10;73.70;;;14.20;55.51;102838.63;4863359;29;20276;-61
2021/12/19 06:31:17;;;;;;;7.00;2.07;;;11.20;73.80;;;14.21;55.76;102828.88;4862737;29;20192;-60
2021/12/19 06:33:45;;;;;;;5.00;2.40;;;11.20;73.70;;;14.21;56.03;102836.84;4861355;29;20731;-62
2021/12/19 06:36:12;;;;;;;6.43;2.77;;;11.20;74.00;;;14.20;55.95;102829.84;4863458;29;20264;-62
2021/12/19 06:38:40;;;;;;;8.83;2.73;;;11.20;74.90;;;14.17;56.13;102824.84;4862868;29;20241;-62
2021/12/19 06:41:09;;;;;;;6.47;3.00;;;11.20;74.40;;;14.15;56.39;102816.22;4863079;29;20220;-62
2021/12/19 06:43:36;;;;;;;7.03;3.60;;;11.10;74.80;;;14.11;56.29;102831.56;4860896;29;20601;-64
2021/12/19 06:46:03;;;;;;;12.70;4.57;;;11.20;74.90;;;14.10;56.63;102826.41;4862525;29;20196;-62
2021/12/19 06:48:31;;;;;;;5.17;3.50;;;11.10;75.10;;;14.09;56.80;102832.69;4862107;29;20220;-63
2021/12/19 06:50:58;;;;;;;7.50;3.67;;;11.10;75.30;;;14.07;56.63;102814.28;4862522;29;20295;-63
2021/12/19 06:53:26;;;;;;;5.20;3.10;;;11.00;75.70;;;14.03;56.90;102818.22;4862195;29;20295;-63
2021/12/19 06:55:53;;;;;;;6.97;3.27;;;11.00;75.60;;;14.01;56.90;102811.41;4862627;29;20654;-62
2021/12/19 06:58:22;;;;;;;8.67;3.27;;;11.00;75.70;;;14.00;57.13;102818.50;4862826;29;20239;-63
2021/12/19 07:00:49;;;;;;;9.93;3.37;;;11.00;75.70;;;14.00;57.01;102818.50;4862661;29;20193;-62
2021/12/19 07:03:23;;;;;;;7.23;3.17;;;11.00;75.80;;;14.00;57.18;102810.56;4861539;29;20245;-62
2021/12/19 07:05:50;;;;;;;6.07;2.80;;;11.00;75.90;;;14.00;57.14;102802.63;4844093;29;20201;-63
2021/12/19 07:08:18;;;;;;;8.13;2.60;;;11.00;76.00;;;14.02;57.22;102810.44;4844083;29;20304;-59
2021/12/19 07:10:45;;;;;;;4.63;2.30;;;11.00;76.00;;;14.04;57.23;102803.19;4844401;29;20204;-62
2021/12/19 07:13:18;;;;;;;4.47;2.27;;;11.00;75.90;;;14.03;56.98;102804.97;4843682;29;20255;-59
2021/12/19 07:15:48;;;;;;;5.83;2.60;;;11.00;75.80;;;14.03;56.89;102798.84;4843669;29;20227;-63
2021/12/19 07:18:15;;;;;;;4.77;2.67;;;11.00;75.80;;;14.02;56.99;102789.25;4843838;29;20189;-62
2021/12/19 07:20:43;;;;;;;7.80;2.80;;;11.00;75.80;;;14.00;56.74;102792.03;4857042;29;20243;-63
2021/12/19 07:23:13;;;;;;;7.27;3.03;;;11.00;75.80;;;14.00;57.29;102788.56;4861789;29;20217;-63
2021/12/19 07:25:41;;;;;;;6.47;3.07;;;11.00;75.80;;;13.99;57.36;102789.53;4862101;29;20193;-62
2021/12/19 07:28:10;;;;;;;8.33;2.43;;;11.00;75.80;;;13.97;57.34;102788.84;4862206;29;20247;-61
2021/12/19 07:30:38;;;;;;;6.03;2.77;;;11.00;75.90;;;13.96;57.29;102784.53;4861810;29;20224;-61
2021/12/19 07:33:09;;;;;;;4.47;3.00;;;11.00;76.00;;;13.95;57.38;102783.69;4861385;29;20577;-62
2021/12/19 07:35:40;;;;;;;5.70;2.30;;;11.00;76.20;;;13.95;57.60;102780.22;4861811;29;20216;-63
2021/12/19 07:38:11;;;;;;;4.27;2.20;;;11.00;76.40;;;13.94;57.54;102774.09;4861834;29;20201;-62
2021/12/19 07:40:46;;;;;;;7.20;2.80;;;10.90;76.50;;;13.94;57.76;102786.50;4862318;29;20200;-62
2021/12/19 07:43:14;;;;;;;3.63;2.37;;;10.90;76.60;;;13.95;57.54;102782.88;4861600;29;20224;-63
2021/12/19 07:45:42;;;;;;;5.53;2.70;;;10.90;76.60;;;13.96;57.93;102784.53;4861844;29;20200;-63
2021/12/19 07:48:11;;;;;;;5.27;2.37;;;10.90;76.60;;;13.97;57.71;102779.09;4861940;29;20299;-62
2021/12/19 07:50:39;;;;;;;7.60;2.87;;;10.90;76.50;;;13.99;57.70;102773.66;4861758;29;20513;-63
2021/12/19 07:53:08;;;;;;;6.30;3.00;;;11.00;76.50;;;14.00;57.55;102770.03;4861045;29;20304;-61
2021/12/19 07:55:36;;;;;;;8.47;3.43;;;11.00;76.50;;;13.99;57.75;102768.34;4861607;29;20279;-62
2021/12/19 07:58:04;;;;;;;6.80;3.00;;;11.00;76.40;;;13.99;57.71;102771.00;4861625;29;20709;-63
2021/12/19 08:00:31;;;;;;;5.57;3.00;;;10.90;76.30;;;14.00;57.71;102770.84;4861060;29;20201;-61
2021/12/19 08:02:59;;;;;;;4.23;2.20;;;10.90;76.40;;;14.00;57.58;102767.38;4861051;29;20251;-62
2021/12/19 08:05:28;;;;;;;8.53;2.20;;;11.00;76.60;;;14.00;57.60;102765.53;4861861;29;20196;-62
2021/12/19 08:08:00;;;;;;;4.53;2.40;;;10.90;76.60;;;13.99;57.69;102769.19;4861240;29;20212;-61
2021/12/19 08:12:59;;;;;;;6.37;2.30;;;11.00;76.70;;;14.03;57.70;102759.13;4860851;29;20303;-62
2021/12/19 08:15:27;;;;;;;5.07;2.47;;;11.00;76.80;;;14.05;57.52;102751.88;4861197;29;20196;-62
2021/12/19 08:17:55;;;;;;;8.10;2.37;;;11.00;76.90;;;14.06;57.32;102753.53;4861646;29;20554;-62
2021/12/19 08:20:22;;;;;;;3.63;2.30;;;11.00;77.00;;;14.06;57.78;102745.59;4860273;29;20192;-60
2021/12/19 08:22:52;;;;;;;6.77;2.63;;;11.00;77.00;;;14.06;58.01;102743.78;4860568;29;20224;-62
2021/12/19 08:25:20;;;;;;;5.03;2.67;;;11.00;77.10;;;14.07;58.03;102739.34;4860678;29;20569;-62
2021/12/19 08:27:47;;;;;;;7.57;3.50;;;11.00;77.10;;;14.06;57.84;102738.50;4860964;29;20283;-61
2021/12/19 08:30:16;;;;;;;7.87;3.87;;;11.00;76.90;;;14.08;57.91;102746.28;4861140;29;20224;-58
2021/12/19 08:32:44;;;;;;;7.57;3.47;;;11.00;76.90;;;14.10;57.79;102744.31;4860975;29;20572;-59
2021/12/19 08:35:12;;;;;;;8.53;3.50;;;11.00;76.90;;;14.10;57.81;102745.16;4861114;29;20241;-62
2021/12/19 08:37:40;;;;;;;9.63;3.40;;;11.00;76.90;;;14.13;57.91;102744.03;4860969;29;20688;-62
2021/12/19 08:40:11;;;;;;;10.37;4.47;;;11.10;77.00;;;14.14;57.88;102745.72;4861092;29;20213;-62
2021/12/19 08:42:39;;;;;;;8.53;3.73;;;11.10;77.00;;;14.15;57.96;102747.34;4860327;29;20220;-62
2021/12/19 08:45:09;;;;;;;5.30;2.73;;;11.10;77.10;;;14.15;57.85;102747.34;4861256;29;20264;-61
2021/12/19 08:47:36;;;;;;;6.37;2.97;;;11.10;77.00;;;14.16;57.99;102744.56;4861001;29;20197;-61
2021/12/19 08:50:08;;;;;;;6.80;3.10;;;11.10;77.10;;;14.17;57.83;102750.69;4860857;29;20276;-62
2021/12/19 08:52:36;;;;;;;5.47;2.93;;;11.10;76.90;;;14.18;57.79;102747.06;4860544;29;20716;-61
2021/12/19 08:55:07;;;;;;;12.87;4.23;;;11.10;76.90;;;14.20;57.79;102748.59;4860653;29;20224;-61
2021/12/19 08:57:36;;;;;;;15.53;5.23;;;11.10;76.70;;;14.21;57.27;102741.47;4860744;29;20193;-58
2021/12/19 09:00:05;;;;;;;8.20;3.40;;;11.10;76.30;;;14.18;57.09;102750.56;4861244;29;20197;-61
2021/12/19 09:02:33;;;;;;;7.90;2.60;;;11.00;76.00;;;14.14;57.24;102746.50;4860482;29;20271;-60
2021/12/19 09:05:01;;;;;;;7.10;2.53;;;11.00;76.50;;;14.13;57.28;102733.44;4861121;29;20221;-61
2021/12/19 09:07:28;;;;;;;8.00;2.60;;;10.90;76.80;;;14.10;57.16;102739.03;4860210;29;20223;-60
2021/12/19 09:09:56;;;;;;;7.60;2.63;;;10.90;75.90;;;14.12;57.18;102747.69;4860309;29;20649;-63
2021/12/19 09:12:23;;;;;;;10.73;2.70;;;11.00;76.30;;;14.14;57.21;102745.72;4859972;29;20203;-59
2021/12/19 09:14:52;;;;;;;6.97;2.37;;;11.00;76.30;;;14.18;57.09;102749.72;4860169;29;20200;-61
2021/12/19 09:17:19;;;;;;;5.50;2.10;;;11.10;76.30;;;14.22;57.02;102745.78;4860123;29;20272;-61
2021/12/19 09:19:47;;;;;;;7.00;2.43;;;11.10;76.10;;;14.25;57.31;102733.09;4860535;29;20247;-60
2021/12/19 09:22:15;;;;;;;5.87;2.63;;;11.10;76.10;;;14.27;57.01;102751.47;4860671;29;20546;-61
2021/12/19 09:24:42;;;;;;;8.17;2.50;;;11.20;76.20;;;14.27;56.90;102748.81;4860490;29;20225;-62
2021/12/19 09:27:10;;;;;;;8.73;3.63;;;11.20;76.20;;;14.28;56.67;102747.84;4860174;29;20199;-62
2021/12/19 09:29:37;;;;;;;8.07;3.00;;;11.20;76.00;;;14.28;57.10;102742.56;4860342;29;20559;-60
2021/12/19 09:32:07;;;;;;;7.73;2.57;;;11.20;75.90;;;14.29;57.00;102727.50;4859574;29;20548;-62
2021/12/19 09:34:35;;;;;;;9.33;3.10;;;11.20;75.90;;;14.33;56.67;102729.72;4860011;29;20224;-61
2021/12/19 09:37:03;;;;;;;10.13;2.73;;;11.20;75.30;;;14.32;56.52;102738.66;4860019;29;20481;-62
2021/12/19 09:39:32;;;;;;;6.30;2.50;;;11.20;75.10;;;14.34;56.68;102730.53;4860580;29;20192;-60
2021/12/19 09:42:08;;;;;;;6.77;2.70;;;11.30;74.80;;;14.36;56.06;102716.16;4858837;29;20303;-59
2021/12/19 09:44:38;;;;;;;9.43;3.03;;;11.30;74.40;;;14.39;55.97;102710.56;4860001;29;20666;-61
2021/12/19 09:47:08;;;;;;;6.37;2.30;;;11.30;74.20;;;14.44;55.75;102718.91;4860132;29;20611;-59
2021/12/19 09:49:36;;;;;;;11.90;3.00;;;11.40;73.50;;;14.45;55.38;102712.63;4862427;29;20239;-61
2021/12/19 09:52:08;;;;;;;7.23;2.77;;;11.40;73.00;;;14.48;55.32;102704.34;4863620;29;20220;-61
2021/12/19 09:54:39;;;;;;;7.00;2.80;;;11.40;72.90;;;14.51;55.05;102712.00;4863358;29;20216;-62
2021/12/19 09:57:07;;;;;;;7.87;2.63;;;11.50;72.80;;;14.53;55.00;102709.19;4863574;29;20197;-62
2021/12/19 09:59:34;;;;;;;9.10;2.83;;;11.50;72.50;;;14.54;54.79;102703.78;4863907;29;20325;-62
2021/12/19 10:02:03;;;;;;;11.77;3.10;;;11.50;72.50;;;14.55;54.61;102697.47;4863770;29;20197;-62
2021/12/19 10:04:36;;;;;;;12.27;3.40;;;11.50;72.10;;;14.55;54.66;102704.56;4862785;29;20224;-62
2021/12/19 10:07:10;;;;;;;7.40;2.63;;;11.60;72.50;;;14.54;55.01;102703.78;4863102;29;20691;-62
2021/12/19 10:09:49;;;;;;;8.73;2.87;;;11.60;72.60;;;14.56;54.73;102695.66;4863426;29;20224;-62
2021/12/19 10:14:54;;;;;;;10.63;3.37;;;11.60;73.00;;;14.58;55.13;102689.22;4863346;29;20254;-65
2021/12/19 10:17:22;;;;;;;12.13;4.13;;;11.60;73.30;;;14.58;55.38;102689.22;4864156;29;20193;-62
2021/12/19 10:19:53;;;;;;;8.83;4.13;;;11.60;73.20;;;14.59;55.40;102682.94;4862057;29;20256;-62
2021/12/19 10:22:30;;;;;;;10.70;3.87;;;11.60;73.20;;;14.61;55.12;102678.31;4861679;29;20197;-62
2021/12/19 10:25:11;;;;;;;14.97;4.13;;;11.60;73.40;;;14.60;55.14;102681.94;4863596;29;20223;-61
2021/12/19 10:27:41;;;;;;;11.70;4.10;;;11.50;73.20;;;14.63;55.26;102679.00;4863379;29;20647;-60
2021/12/19 10:30:12;;;;;;;14.47;3.60;;;11.60;73.50;;;14.63;55.06;102679.00;4863016;29;20224;-61
2021/12/19 10:32:59;;;;;;;11.77;3.67;;;11.60;73.40;;;14.61;55.59;102665.06;4862795;29;20208;-62
2021/12/19 10:35:34;;;;;;;11.47;4.10;;;11.60;74.30;;;14.63;55.52;102665.75;4863321;29;20200;-58
2021/12/19 10:38:04;;;;;;;14.07;4.53;;;11.60;73.50;;;14.65;55.06;102662.94;4862731;29;20196;-61
2021/12/19 10:40:32;;;;;;;12.97;4.50;;;11.60;73.60;;;14.65;55.25;102654.97;4862135;29;20208;-60
2021/12/19 10:43:04;;;;;;;10.10;3.50;;;11.60;73.60;;;14.63;55.22;102647.19;4862754;29;20216;-62
2021/12/19 10:45:35;;;;;;;12.77;3.80;;;11.60;73.60;;;14.61;55.50;102649.16;4862774;29;20229;-60
2021/12/19 10:48:29;;;;;;;7.63;3.80;;;11.60;73.60;;;14.58;55.62;102643.31;4863562;29;20255;-59
2021/12/19 10:51:02;;;;;;;14.07;4.60;;;11.70;73.80;;;14.62;55.52;102634.91;4854019;29;20244;-62
2021/12/19 10:53:35;;;;;;;11.97;4.20;;;11.70;73.70;;;14.62;55.45;102645.50;4862082;29;20248;-62
2021/12/19 10:56:08;;;;;;;10.97;4.03;;;11.70;73.80;;;14.65;55.70;102631.13;4862660;29;20204;-62
2021/12/19 10:58:43;;;;;;;8.77;2.80;;;11.70;73.80;;;14.66;55.40;102631.00;4862414;29;20205;-60
2021/12/19 11:01:17;;;;;;;13.70;4.33;;;11.70;73.70;;;14.70;55.64;102627.03;4862401;29;20232;-61
2021/12/19 11:03:56;;;;;;;9.67;3.73;;;11.70;73.70;;;14.70;55.10;102624.38;4862053;29;20267;-61
2021/12/19 11:06:34;;;;;;;11.90;4.10;;;11.70;73.70;;;14.71;55.56;102618.06;4862960;29;20184;-61
2021/12/19 11:09:09;;;;;;;6.70;3.80;;;11.70;73.30;;;14.73;55.50;102613.47;4862891;29;20231;-61
2021/12/19 11:11:50;;;;;;;11.17;4.40;;;11.70;73.40;;;14.77;54.97;102606.88;4862664;29;20740;-60
2021/12/19 11:14:23;;;;;;;12.40;3.67;;;11.70;73.00;;;14.81;55.14;102607.38;4854270;29;20264;-62
2021/12/19 11:17:01;;;;;;;13.20;3.83;;;11.70;72.90;;;14.81;54.77;102597.59;4846433;29;20272;-62
2021/12/19 11:19:30;;;;;;;13.97;4.27;;;11.80;72.50;;;14.85;54.29;102587.53;4842323;29;20194;-62
2021/12/19 11:22:23;;;;;;;9.17;3.00;;;11.70;71.90;;;14.86;54.12;102584.72;4856152;29;20200;-62
2021/12/19 11:24:57;;;;;;;12.23;4.07;;;11.80;72.10;;;14.88;54.08;102588.03;4862510;29;20294;-62
2021/12/19 11:27:26;;;;;;;12.47;4.00;;;11.80;71.20;;;14.88;53.83;102582.72;4862134;29;20196;-60
2021/12/19 11:29:55;;;;;;;15.23;3.80;;;11.80;71.20;;;14.91;53.63;102568.34;4862014;29;20259;-61
2021/12/19 11:32:32;;;;;;;12.63;3.40;;;11.80;71.10;;;14.93;53.89;102570.84;4854362;29;20611;-61